Time;durP1;ratioP1;P1;durP2;ratioP2;P2;SDS_P1;SDS_P2;PMS_P1;PMS_P2;Temp;Humidity;BMP_temperature;BMP_pressure;BME280_temperature;BME280_humidity;BME280_pressure;Samples;Min_cycle;Max_cycle;Signal;HPM_P1;HPM_P2
2022/11/27 00:00:16;;;;;;;410.17;365.98;;;;;;;-142.06;100.00;58987.19;7385001;19;20014;-57
2022/11/27 00:02:49;;;;;;;411.85;367.48;;;;;;;-142.06;100.00;58987.19;7386268;19;20581;-48
2022/11/27 00:05:25;;;;;;;409.80;365.60;;;;;;;-142.06;100.00;58987.19;7386509;19;20014;-52
2022/11/27 00:07:59;;;;;;;427.10;381.10;;;;;;;-142.06;100.00;58987.19;7378543;19;20500;-50
2022/11/27 00:10:32;;;;;;;387.75;341.25;;;;;;;-142.06;100.00;58987.19;7384562;19;20018;-49
2022/11/27 00:13:05;;;;;;;391.73;348.65;;;;;;;-142.06;100.00;58987.19;7384673;19;20033;-55
2022/11/27 00:15:39;;;;;;;393.10;346.35;;;;;;;-142.06;100.00;58987.19;7382163;19;20606;-48
2022/11/27 00:18:12;;;;;;;394.63;351.40;;;;;;;-142.06;100.00;58987.19;7386324;19;20003;-48
2022/11/27 00:20:48;;;;;;;437.48;391.90;;;;;;;-142.06;100.00;58987.19;7381121;19;20335;-49
2022/11/27 00:23:21;;;;;;;421.55;377.30;;;;;;;-142.06;100.00;58987.19;7385579;19;20033;-48
2022/11/27 00:25:58;;;;;;;428.45;383.48;;;;;;;-142.06;100.00;58987.19;7384457;19;20034;-56
2022/11/27 00:28:32;;;;;;;428.33;383.10;;;;;;;-142.06;100.00;58987.19;7385723;19;20022;-49
2022/11/27 00:31:06;;;;;;;418.98;374.38;;;;;;;-142.06;100.00;58987.19;7386487;19;20082;-51
2022/11/27 00:33:42;;;;;;;434.95;388.55;;;;;;;-142.06;100.00;58987.19;7382531;19;21097;-52
2022/11/27 00:36:19;;;;;;;420.05;374.92;;;;;;;-142.06;100.00;58987.19;7386391;19;20026;-49
2022/11/27 00:38:53;;;;;;;431.20;385.33;;;;;;;-142.06;100.00;58987.19;7378737;19;20352;-49
2022/11/27 00:41:29;;;;;;;413.20;368.67;;;;;;;-142.06;100.00;58987.19;7385819;19;20028;-49
2022/11/27 00:44:03;;;;;;;410.60;366.17;;;;;;;-142.06;100.00;58987.19;7381939;19;20070;-56
2022/11/27 00:46:40;;;;;;;452.20;388.38;;;;;;;-142.06;100.00;58987.19;7385454;19;20094;-49
2022/11/27 00:49:16;;;;;;;411.88;367.45;;;;;;;-142.06;100.00;58987.19;7383907;19;20041;-48
2022/11/27 00:51:51;;;;;;;500.60;421.42;;;;;;;-142.06;100.00;58987.19;7379257;19;20010;-49
2022/11/27 00:54:25;;;;;;;438.95;379.98;;;;;;;-142.06;100.00;58987.19;7384863;19;20118;-49
2022/11/27 00:56:58;;;;;;;499.92;424.73;;;;;;;-142.06;100.00;58987.19;7381835;19;20015;-54
2022/11/27 00:59:32;;;;;;;505.20;430.27;;;;;;;-142.06;100.00;58987.19;7388095;19;20021;-49
2022/11/27 01:02:05;;;;;;;432.73;386.98;;;;;;;-142.06;100.00;58987.19;7389684;19;20010;-49
2022/11/27 01:04:38;;;;;;;430.02;383.80;;;;;;;-142.06;100.00;58987.19;7386709;19;20007;-48
2022/11/27 01:07:14;;;;;;;513.33;428.55;;;;;;;-142.06;100.00;58987.19;7391176;19;20007;-53
2022/11/27 01:09:48;;;;;;;476.80;409.40;;;;;;;-142.06;100.00;58987.19;7388008;19;20484;-56
2022/11/27 01:12:21;;;;;;;439.67;376.42;;;;;;;-142.06;100.00;58987.19;7389437;19;20040;-53
2022/11/27 01:14:54;;;;;;;416.50;371.60;;;;;;;-142.06;100.00;58987.19;7389315;19;20029;-48
2022/11/27 01:17:27;;;;;;;430.55;384.45;;;;;;;-142.06;100.00;58987.19;7386221;19;20015;-49
2022/11/27 01:20:00;;;;;;;418.58;374.20;;;;;;;-142.06;100.00;58987.19;7390241;19;20033;-54
2022/11/27 01:22:36;;;;;;;416.92;372.58;;;;;;;-142.06;100.00;58987.19;7388885;19;20014;-49
2022/11/27 01:25:10;;;;;;;423.67;378.85;;;;;;;-142.06;100.00;58987.19;7390239;19;20003;-48
2022/11/27 01:27:44;;;;;;;416.55;371.98;;;;;;;-142.06;100.00;58987.19;7390010;19;20007;-48
2022/11/27 01:30:18;;;;;;;426.38;380.77;;;;;;;-142.06;100.00;58987.19;7385507;19;20091;-49
2022/11/27 01:32:52;;;;;;;399.40;355.88;;;;;;;-142.06;100.00;58987.19;7391750;19;20518;-48
2022/11/27 01:35:25;;;;;;;395.48;352.33;;;;;;;-142.06;100.00;58987.19;7389081;19;20007;-51
2022/11/27 01:38:01;;;;;;;389.88;346.90;;;;;;;-142.06;100.00;58987.19;7392044;19;20045;-50
2022/11/27 01:40:35;;;;;;;395.95;352.45;;;;;;;-142.06;100.00;58987.19;7390293;19;20462;-48
2022/11/27 01:43:09;;;;;;;411.73;366.85;;;;;;;-142.06;100.00;58987.19;7386038;19;20347;-49
2022/11/27 01:45:42;;;;;;;398.23;354.38;;;;;;;-142.06;100.00;58987.19;7390283;19;20018;-49
2022/11/27 01:48:19;;;;;;;419.90;375.25;;;;;;;-142.06;100.00;58987.19;7388473;19;20021;-56
2022/11/27 01:50:52;;;;;;;412.15;367.95;;;;;;;-142.06;100.00;58987.19;7389820;19;20328;-50
2022/11/27 01:53:28;;;;;;;388.27;333.30;;;;;;;-142.06;100.00;58987.19;7391572;19;20404;-48
2022/11/27 01:56:08;;;;;;;410.60;357.90;;;;;;;-142.06;100.00;58987.19;7385454;19;20015;-49
2022/11/27 01:58:42;;;;;;;395.77;345.67;;;;;;;-142.06;100.00;58987.19;7392283;19;20034;-48
2022/11/27 02:01:16;;;;;;;403.58;353.75;;;;;;;-142.06;100.00;58987.19;7385385;19;20031;-48
2022/11/27 02:03:49;;;;;;;395.77;352.85;;;;;;;-142.06;100.00;58987.19;7390810;19;20017;-49
2022/11/27 02:06:24;;;;;;;405.00;361.67;;;;;;;-142.06;100.00;58987.19;7389434;19;20472;-49
2022/11/27 02:09:01;;;;;;;410.02;365.70;;;;;;;-142.06;100.00;58987.19;7387930;19;20472;-48
2022/11/27 02:11:41;;;;;;;411.85;367.15;;;;;;;-142.06;100.00;58987.19;7388682;19;20018;-49
2022/11/27 02:14:22;;;;;;;422.77;376.80;;;;;;;-142.06;100.00;58987.19;7390259;19;20118;-48
2022/11/27 02:17:03;;;;;;;413.92;369.27;;;;;;;-142.06;100.00;58987.19;7389675;19;20010;-48
2022/11/27 02:20:02;;;;;;;424.15;379.27;;;;;;;-142.06;100.00;58987.19;7390649;19;21176;-49
2022/11/27 02:22:49;;;;;;;425.98;380.23;;;;;;;-142.06;100.00;58987.19;7384338;19;20010;-49
2022/11/27 02:25:37;;;;;;;415.10;369.75;;;;;;;-142.06;100.00;58987.19;7387049;19;20542;-49
2022/11/27 02:28:35;;;;;;;421.25;375.60;;;;;;;-142.06;100.00;58987.19;7389276;19;20033;-51
2022/11/27 02:31:18;;;;;;;424.83;378.83;;;;;;;-142.06;100.00;58987.19;7383786;19;20018;-49
2022/11/27 02:33:57;;;;;;;425.80;380.70;;;;;;;-142.06;100.00;58987.19;7389858;19;20007;-49
2022/11/27 02:36:37;;;;;;;430.30;384.05;;;;;;;-142.06;100.00;58987.19;7380939;19;20014;-49
2022/11/27 02:39:17;;;;;;;417.08;372.95;;;;;;;-142.06;100.00;58987.19;7388567;19;20010;-51
2022/11/27 02:41:56;;;;;;;426.00;380.13;;;;;;;-142.06;100.00;58987.19;7382548;19;20074;-50
2022/11/27 02:44:31;;;;;;;449.50;389.48;;;;;;;-142.06;100.00;58987.19;7389303;19;20007;-47
2022/11/27 02:47:09;;;;;;;410.20;365.88;;;;;;;-142.06;100.00;58987.19;7384948;19;20018;-57
2022/11/27 02:49:45;;;;;;;416.80;372.55;;;;;;;-142.06;100.00;58987.19;7386868;19;20126;-50
2022/11/27 02:52:24;;;;;;;417.48;372.55;;;;;;;-142.06;100.00;58987.19;7386253;19;20010;-49
2022/11/27 02:55:01;;;;;;;409.17;365.00;;;;;;;-142.06;100.00;58987.19;7388735;19;20014;-52
2022/11/27 02:57:36;;;;;;;411.10;366.60;;;;;;;-142.06;100.00;58987.19;7389592;19;20010;-49
2022/11/27 03:00:11;;;;;;;552.45;457.27;;;;;;;-142.06;100.00;58987.19;7384707;19;20414;-48
2022/11/27 03:02:55;;;;;;;404.60;360.75;;;;;;;-142.06;100.00;58987.19;7387908;19;20010;-49
2022/11/27 03:05:33;;;;;;;521.95;443.15;;;;;;;-142.06;100.00;58987.19;7383531;19;20319;-48
2022/11/27 03:08:11;;;;;;;441.63;396.08;;;;;;;-142.06;100.00;58987.19;7388366;19;20029;-48
2022/11/27 03:10:53;;;;;;;610.72;497.10;;;;;;;-142.06;100.00;58987.19;7382555;19;20013;-48
2022/11/27 03:13:27;;;;;;;750.60;561.83;;;;;;;-142.06;100.00;58987.19;7388646;19;20070;-51
2022/11/27 03:16:13;;;;;;;763.33;563.85;;;;;;;-142.06;100.00;58987.19;7381060;19;20015;-56
2022/11/27 03:18:59;;;;;;;773.25;563.53;;;;;;;-142.06;100.00;58987.19;7385352;19;20014;-51
2022/11/27 03:21:36;;;;;;;771.08;571.80;;;;;;;-142.06;100.00;58987.19;7380657;19;20050;-49
2022/11/27 03:24:10;;;;;;;763.58;567.63;;;;;;;-142.06;100.00;58987.19;7385201;19;20014;-50
2022/11/27 03:26:45;;;;;;;744.17;554.15;;;;;;;-142.06;100.00;58987.19;7382531;19;20122;-52
2022/11/27 03:29:20;;;;;;;719.25;528.15;;;;;;;-142.06;100.00;58987.19;7388036;19;20090;-48
2022/11/27 03:31:55;;;;;;;691.35;520.38;;;;;;;-142.06;100.00;58987.19;7388359;19;20015;-49
2022/11/27 03:34:32;;;;;;;686.25;515.72;;;;;;;-142.06;100.00;58987.19;7385477;19;20011;-49
2022/11/27 03:37:05;;;;;;;613.92;475.27;;;;;;;-142.06;100.00;58987.19;7385923;19;20379;-49
2022/11/27 03:39:39;;;;;;;428.52;381.95;;;;;;;-142.06;100.00;58987.19;7382703;19;20097;-49
2022/11/27 03:42:22;;;;;;;419.45;374.50;;;;;;;-142.06;100.00;58987.19;7387471;19;20362;-53
2022/11/27 03:45:03;;;;;;;411.50;366.25;;;;;;;-142.06;100.00;58987.19;7382290;19;20034;-52
2022/11/27 03:47:51;;;;;;;391.25;347.88;;;;;;;-142.06;100.00;58987.19;7386689;19;20011;-54
2022/11/27 03:50:41;;;;;;;400.95;354.23;;;;;;;-142.06;100.00;58987.19;7385158;19;20015;-51
2022/11/27 03:53:25;;;;;;;396.00;352.15;;;;;;;-142.06;100.00;58987.19;7387880;19;20014;-49
2022/11/27 03:56:02;;;;;;;457.65;411.33;;;;;;;-142.06;100.00;58987.19;7385004;19;20078;-48
2022/11/27 03:58:40;;;;;;;441.98;396.88;;;;;;;-142.06;100.00;58987.19;7385798;19;20018;-49
2022/11/27 04:01:17;;;;;;;403.48;359.17;;;;;;;-142.06;100.00;58987.19;7386549;19;20040;-51
2022/11/27 04:03:50;;;;;;;414.55;370.35;;;;;;;-142.06;100.00;58987.19;7386032;19;20340;-51
2022/11/27 04:06:26;;;;;;;417.50;372.70;;;;;;;-142.06;100.00;58987.19;7382139;19;20034;-49
2022/11/27 04:08:59;;;;;;;404.25;360.70;;;;;;;-142.06;100.00;58987.19;7385960;19;20501;-48
2022/11/27 04:11:33;;;;;;;407.77;364.17;;;;;;;-142.06;100.00;58987.19;7381204;19;20003;-52
2022/11/27 04:14:10;;;;;;;430.73;386.38;;;;;;;-142.06;100.00;58987.19;7386733;19;20018;-53
2022/11/27 04:16:43;;;;;;;423.20;378.90;;;;;;;-142.06;100.00;58987.19;7385251;19;20023;-52
2022/11/27 04:19:17;;;;;;;427.20;381.67;;;;;;;-142.06;100.00;58987.19;7383155;19;20011;-49
2022/11/27 04:21:52;;;;;;;418.33;373.77;;;;;;;-142.06;100.00;58987.19;7385127;19;20006;-50
2022/11/27 04:24:26;;;;;;;423.20;377.90;;;;;;;-142.06;100.00;58987.19;7382181;19;20694;-52
2022/11/27 04:26:59;;;;;;;417.45;372.92;;;;;;;-142.06;100.00;58987.19;7386769;19;20653;-48
2022/11/27 04:29:33;;;;;;;416.58;372.15;;;;;;;-142.06;100.00;58987.19;7385129;19;20524;-50
2022/11/27 04:32:06;;;;;;;427.00;381.38;;;;;;;-142.06;100.00;58987.19;7380471;19;20022;-48
2022/11/27 04:34:39;;;;;;;407.67;364.02;;;;;;;-142.06;100.00;58987.19;7394208;19;20014;-51
2022/11/27 04:37:15;;;;;;;400.13;356.05;;;;;;;-142.06;100.00;58987.19;7389030;19;20003;-56
2022/11/27 04:39:52;;;;;;;402.15;358.70;;;;;;;-142.06;100.00;58987.19;7394132;19;20070;-49
2022/11/27 04:42:25;;;;;;;411.80;368.30;;;;;;;-142.06;100.00;58987.19;7393938;19;20006;-49
2022/11/27 04:44:59;;;;;;;417.88;373.00;;;;;;;-142.06;100.00;58987.19;7389997;19;20330;-51
2022/11/27 04:47:32;;;;;;;400.88;357.52;;;;;;;-142.06;100.00;58987.19;7390334;19;20033;-48
2022/11/27 04:50:05;;;;;;;411.48;367.10;;;;;;;-142.06;100.00;58987.19;7384780;19;20015;-52
2022/11/27 04:52:42;;;;;;;403.15;359.38;;;;;;;-142.06;100.00;58987.19;7393559;19;20011;-48
2022/11/27 04:55:16;;;;;;;428.63;384.30;;;;;;;-142.06;100.00;58987.19;7394670;19;20011;-51
2022/11/27 04:57:49;;;;;;;416.77;371.80;;;;;;;-142.06;100.00;58987.19;7390682;19;20462;-49
2022/11/27 05:00:28;;;;;;;414.63;370.90;;;;;;;-142.06;100.00;58987.19;7393874;19;20018;-50
2022/11/27 05:03:01;;;;;;;431.50;386.10;;;;;;;-142.06;100.00;58987.19;7386318;19;20014;-49
2022/11/27 05:05:35;;;;;;;438.20;393.40;;;;;;;-142.06;100.00;58987.19;7393515;19;20082;-50
2022/11/27 05:08:11;;;;;;;420.27;375.85;;;;;;;-142.06;100.00;58987.19;7392724;19;20011;-47
2022/11/27 05:10:45;;;;;;;419.90;375.52;;;;;;;-142.06;100.00;58987.19;7394198;19;20014;-48
2022/11/27 05:13:19;;;;;;;417.40;373.13;;;;;;;-142.06;100.00;58987.19;7392834;19;20346;-49
2022/11/27 05:15:55;;;;;;;429.15;383.52;;;;;;;-142.06;100.00;58987.19;7386377;19;20011;-52
2022/11/27 05:18:28;;;;;;;420.45;376.05;;;;;;;-142.06;100.00;58987.19;7391114;19;20014;-56
2022/11/27 05:21:03;;;;;;;428.42;383.58;;;;;;;-142.06;100.00;58987.19;7390668;19;20021;-56
2022/11/27 05:23:40;;;;;;;428.33;383.10;;;;;;;-142.06;100.00;58987.19;7391573;19;20014;-49
2022/11/27 05:26:13;;;;;;;427.98;383.10;;;;;;;-142.06;100.00;58987.19;7389735;19;20018;-50
2022/11/27 05:28:47;;;;;;;440.98;394.77;;;;;;;-142.06;100.00;58987.19;7386459;19;20010;-52
2022/11/27 05:31:20;;;;;;;429.75;384.80;;;;;;;-142.06;100.00;58987.19;7390065;19;20011;-49
2022/11/27 05:33:54;;;;;;;438.67;393.48;;;;;;;-142.06;100.00;58987.19;7388440;19;20014;-54
2022/11/27 05:36:27;;;;;;;431.80;386.50;;;;;;;-142.06;100.00;58987.19;7391833;19;20046;-54
2022/11/27 05:39:04;;;;;;;446.35;400.45;;;;;;;-142.06;100.00;58987.19;7390242;19;20126;-48
2022/11/27 05:41:38;;;;;;;447.65;401.02;;;;;;;-142.06;100.00;58987.19;7387144;19;20022;-53
2022/11/27 05:44:12;;;;;;;439.10;394.00;;;;;;;-142.06;100.00;58987.19;7388217;19;20033;-49
2022/11/27 05:46:45;;;;;;;440.95;394.38;;;;;;;-142.06;100.00;58987.19;7386121;19;20024;-50
2022/11/27 05:49:20;;;;;;;441.83;395.52;;;;;;;-142.06;100.00;58987.19;7388969;19;20086;-49
2022/11/27 05:51:53;;;;;;;437.30;390.85;;;;;;;-142.06;100.00;58987.19;7390066;19;20487;-49
2022/11/27 05:54:29;;;;;;;459.77;412.35;;;;;;;-142.06;100.00;58987.19;7387087;19;20014;-51
2022/11/27 05:57:02;;;;;;;426.63;380.77;;;;;;;-142.06;100.00;58987.19;7388697;19;20090;-51
2022/11/27 05:59:36;;;;;;;462.30;413.75;;;;;;;-142.06;100.00;58987.19;7386889;19;20014;-56
2022/11/27 06:02:09;;;;;;;429.17;383.23;;;;;;;-142.06;100.00;58987.19;7391617;19;20011;-52
2022/11/27 06:04:43;;;;;;;435.00;388.92;;;;;;;-142.06;100.00;58987.19;7390676;19;20399;-52
2022/11/27 06:07:16;;;;;;;460.70;412.85;;;;;;;-142.06;100.00;58987.19;7386609;19;20011;-49
2022/11/27 06:09:52;;;;;;;429.58;384.23;;;;;;;-142.06;100.00;58987.19;7389989;19;20015;-48
2022/11/27 06:12:25;;;;;;;438.55;392.30;;;;;;;-142.06;100.00;58987.19;7386460;19;20011;-55
2022/11/27 06:14:58;;;;;;;409.33;365.25;;;;;;;-142.06;100.00;58987.19;7389969;19;20478;-49
2022/11/27 06:17:31;;;;;;;438.75;392.60;;;;;;;-142.06;100.00;58987.19;7387932;19;20024;-52
2022/11/27 06:20:05;;;;;;;454.02;407.33;;;;;;;-142.06;100.00;58987.19;7383305;19;20018;-49
2022/11/27 06:22:38;;;;;;;434.88;390.38;;;;;;;-142.06;100.00;58987.19;7389607;19;20037;-49
2022/11/27 06:25:15;;;;;;;729.80;537.42;;;;;;;-142.06;100.00;58987.19;7388282;19;20038;-56
2022/11/27 06:27:48;;;;;;;775.60;587.28;;;;;;;-142.06;100.00;58987.19;7388785;19;20010;-48
2022/11/27 06:30:22;;;;;;;779.35;586.58;;;;;;;-142.06;100.00;58987.19;7390435;19;20010;-48
2022/11/27 06:32:56;;;;;;;817.85;582.90;;;;;;;-142.06;100.00;58987.19;7383273;19;20006;-48
2022/11/27 06:35:29;;;;;;;760.28;562.05;;;;;;;-142.06;100.00;58987.19;7390540;19;20038;-53
2022/11/27 06:38:02;;;;;;;570.60;488.70;;;;;;;-142.06;100.00;58987.19;7383790;19;20030;-56
2022/11/27 06:40:38;;;;;;;573.10;494.58;;;;;;;-142.06;100.00;58987.19;7385503;19;20111;-49
2022/11/27 06:43:11;;;;;;;569.25;500.95;;;;;;;-142.06;100.00;58987.19;7388762;19;20010;-52
2022/11/27 06:45:45;;;;;;;562.70;497.02;;;;;;;-142.06;100.00;58987.19;7382549;19;20011;-49
2022/11/27 06:48:18;;;;;;;529.17;468.23;;;;;;;-142.06;100.00;58987.19;7387416;19;20035;-51
2022/11/27 06:50:51;;;;;;;527.05;470.35;;;;;;;-142.06;100.00;58987.19;7386831;19;20018;-51
2022/11/27 06:53:25;;;;;;;510.67;456.33;;;;;;;-142.06;100.00;58987.19;7388478;19;20014;-48
2022/11/27 06:56:01;;;;;;;511.58;456.48;;;;;;;-142.06;100.00;58987.19;7386903;19;20031;-51
2022/11/27 06:58:34;;;;;;;526.17;467.92;;;;;;;-142.06;100.00;58987.19;7383646;19;20067;-48
2022/11/27 07:01:10;;;;;;;477.27;427.17;;;;;;;-142.06;100.00;58987.19;7388532;19;20458;-48
2022/11/27 07:03:43;;;;;;;474.67;425.10;;;;;;;-142.06;100.00;58987.19;7383214;19;20027;-57
2022/11/27 07:06:18;;;;;;;446.65;401.25;;;;;;;-142.06;100.00;58987.19;7387239;19;20010;-48
2022/11/27 07:08:51;;;;;;;432.90;388.15;;;;;;;-142.06;100.00;58987.19;7387355;19;20006;-48
2022/11/27 07:11:30;;;;;;;448.70;401.20;;;;;;;-142.06;100.00;58987.19;7383301;19;20021;-48
2022/11/27 07:14:04;;;;;;;;;;;;;;;-142.06;100.00;58987.19;7388743;19;20034;-47
2022/11/27 07:16:40;;;;;;;439.10;393.48;;;;;;;-142.06;100.00;58987.19;7382144;19;19970;-49
2022/11/27 07:19:13;;;;;;;413.48;369.73;;;;;;;-142.06;100.00;58987.19;7386847;19;20019;-50
2022/11/27 07:21:47;;;;;;;422.08;378.15;;;;;;;-142.06;100.00;58987.19;7387976;19;21249;-48
2022/11/27 07:24:20;;;;;;;441.05;395.42;;;;;;;-142.06;100.00;58987.19;7386625;19;20049;-48
2022/11/27 07:26:56;;;;;;;431.50;386.55;;;;;;;-142.06;100.00;58987.19;7388363;19;20007;-50
2022/11/27 07:29:29;;;;;;;450.02;404.05;;;;;;;-142.06;100.00;58987.19;7383048;19;20411;-48
2022/11/27 07:32:02;;;;;;;425.88;381.17;;;;;;;-142.06;100.00;58987.19;7387998;19;20006;-48
2022/11/27 07:34:35;;;;;;;427.98;382.95;;;;;;;-142.06;100.00;58987.19;7385774;19;20007;-52
2022/11/27 07:37:08;;;;;;;445.33;399.15;;;;;;;-142.06;100.00;58987.19;7383307;19;20031;-48
2022/11/27 07:39:42;;;;;;;437.63;391.92;;;;;;;-142.06;100.00;58987.19;7387803;19;20017;-51
2022/11/27 07:42:17;;;;;;;441.08;394.77;;;;;;;-142.06;100.00;58987.19;7379786;19;20019;-52
2022/11/27 07:44:54;;;;;;;438.75;393.08;;;;;;;-142.06;100.00;58987.19;7384295;19;20431;-49
2022/11/27 07:47:27;;;;;;;432.58;387.25;;;;;;;-142.06;100.00;58987.19;7385645;19;20007;-48
2022/11/27 07:50:00;;;;;;;437.30;391.42;;;;;;;-142.06;100.00;58987.19;7384864;19;20549;-49
2022/11/27 07:52:34;;;;;;;426.40;381.50;;;;;;;-142.06;100.00;58987.19;7385017;19;20018;-50
2022/11/27 07:55:07;;;;;;;441.98;396.10;;;;;;;-142.06;100.00;58987.19;7376012;19;20015;-48
2022/11/27 07:57:44;;;;;;;460.40;411.92;;;;;;;-142.06;100.00;58987.19;7382605;19;20074;-48
2022/11/27 08:00:18;;;;;;;471.52;421.50;;;;;;;-142.06;100.00;58987.19;7387934;19;20016;-48
2022/11/27 08:02:52;;;;;;;474.17;424.38;;;;;;;-142.06;100.00;58987.19;7386633;19;20029;-51
2022/11/27 08:05:25;;;;;;;420.67;375.85;;;;;;;-142.06;100.00;58987.19;7386818;19;20470;-53
2022/11/27 08:07:59;;;;;;;488.33;436.27;;;;;;;-142.06;100.00;58987.19;7377371;19;20014;-49
2022/11/27 08:10:32;;;;;;;455.35;406.25;;;;;;;-142.06;100.00;58987.19;7387424;19;20110;-49
2022/11/27 08:13:09;;;;;;;484.15;433.63;;;;;;;-142.06;100.00;58987.19;7386352;19;20097;-49
2022/11/27 08:15:44;;;;;;;473.17;422.98;;;;;;;-142.06;100.00;58987.19;7387428;19;20043;-51
2022/11/27 08:18:18;;;;;;;423.67;378.38;;;;;;;-142.06;100.00;58987.19;7385139;19;20399;-49
2022/11/27 08:20:51;;;;;;;440.63;393.83;;;;;;;-142.06;100.00;58987.19;7380073;19;20025;-49
2022/11/27 08:23:25;;;;;;;428.88;383.45;;;;;;;-142.06;100.00;58987.19;7386517;19;20015;-49
2022/11/27 08:25:58;;;;;;;423.75;378.55;;;;;;;-142.06;100.00;58987.19;7384037;19;20006;-48
2022/11/27 08:28:34;;;;;;;419.70;375.02;;;;;;;-142.06;100.00;58987.19;7386737;19;20556;-48
2022/11/27 08:31:09;;;;;;;418.80;374.42;;;;;;;-142.06;100.00;58987.19;7386704;19;20014;-51
2022/11/27 08:33:42;;;;;;;436.88;390.55;;;;;;;-142.06;100.00;58987.19;7375206;19;20474;-49
2022/11/27 08:36:16;;;;;;;426.92;382.00;;;;;;;-142.06;100.00;58987.19;7382750;19;20438;-48
2022/11/27 08:38:50;;;;;;;426.77;382.25;;;;;;;-142.06;100.00;58987.19;7375798;19;20041;-49
2022/11/27 08:41:23;;;;;;;421.35;377.27;;;;;;;-142.06;100.00;58987.19;7381998;19;20007;-48
2022/11/27 08:43:59;;;;;;;411.00;366.85;;;;;;;-142.06;100.00;58987.19;7387558;19;20090;-48
2022/11/27 08:46:33;;;;;;;424.33;378.83;;;;;;;-142.06;100.00;58987.19;7380364;19;20030;-51
2022/11/27 08:49:06;;;;;;;419.65;374.92;;;;;;;-142.06;100.00;58987.19;7384954;19;20018;-51
2022/11/27 08:51:39;;;;;;;425.10;380.35;;;;;;;-142.06;100.00;58987.19;7383615;19;20006;-51
2022/11/27 08:54:13;;;;;;;404.45;360.48;;;;;;;-142.06;100.00;58987.19;7383929;19;20627;-51
2022/11/27 08:56:46;;;;;;;411.77;367.52;;;;;;;-142.06;100.00;58987.19;7382478;19;20006;-57
2022/11/27 08:59:22;;;;;;;425.90;380.40;;;;;;;-142.06;100.00;58987.19;7378166;19;20037;-49
2022/11/27 09:01:55;;;;;;;415.65;371.42;;;;;;;-142.06;100.00;58987.19;7382424;19;20062;-48
2022/11/27 09:04:29;;;;;;;417.45;372.77;;;;;;;-142.06;100.00;58987.19;7380092;19;20501;-53
2022/11/27 09:07:02;;;;;;;417.55;373.10;;;;;;;-142.06;100.00;58987.19;7379747;19;20439;-48
2022/11/27 09:09:35;;;;;;;432.50;387.15;;;;;;;-142.06;100.00;58987.19;7386101;19;21348;-49
2022/11/27 09:12:09;;;;;;;435.00;388.70;;;;;;;-142.06;100.00;58987.19;7381025;19;20034;-49
2022/11/27 09:14:45;;;;;;;424.50;379.42;;;;;;;-142.06;100.00;58987.19;7386002;19;20003;-55
2022/11/27 09:17:18;;;;;;;428.63;382.98;;;;;;;-142.06;100.00;58987.19;7384758;19;20010;-54
2022/11/27 09:19:52;;;;;;;439.70;393.85;;;;;;;-142.06;100.00;58987.19;7389102;19;20037;-53
2022/11/27 09:22:25;;;;;;;418.45;373.65;;;;;;;-142.06;100.00;58987.19;7393634;19;20045;-53
2022/11/27 09:24:58;;;;;;;435.08;388.25;;;;;;;-142.06;100.00;58987.19;7388869;19;20032;-52
2022/11/27 09:27:31;;;;;;;423.35;377.95;;;;;;;-142.06;100.00;58987.19;7393338;19;20015;-52
2022/11/27 09:30:07;;;;;;;419.40;373.85;;;;;;;-142.06;100.00;58987.19;7391531;19;20350;-49
2022/11/27 09:32:40;;;;;;;411.33;366.30;;;;;;;-142.06;100.00;58987.19;7390806;19;20499;-52
2022/11/27 09:35:14;;;;;;;421.67;376.42;;;;;;;-142.06;100.00;58987.19;7392542;19;20017;-50
2022/11/27 09:37:48;;;;;;;462.98;410.23;;;;;;;-142.06;100.00;58987.19;7382802;19;20010;-51
2022/11/27 09:40:22;;;;;;;432.88;388.23;;;;;;;-142.06;100.00;58987.19;7387624;19;20018;-52
2022/11/27 09:43:01;;;;;;;427.23;382.50;;;;;;;-142.06;100.00;58987.19;7390753;19;20038;-50
2022/11/27 09:45:38;;;;;;;431.65;386.88;;;;;;;-142.06;100.00;58987.19;7391396;19;20010;-54
2022/11/27 09:48:17;;;;;;;433.02;388.02;;;;;;;-142.06;100.00;58987.19;7389814;19;20162;-54
2022/11/27 09:50:54;;;;;;;439.65;393.77;;;;;;;-142.06;100.00;58987.19;7389759;19;20563;-51
2022/11/27 09:53:35;;;;;;;438.35;393.35;;;;;;;-142.06;100.00;58987.19;7392535;19;20019;-52
2022/11/27 09:56:12;;;;;;;448.38;401.65;;;;;;;-142.06;100.00;58987.19;7389446;19;21028;-52
2022/11/27 09:58:47;;;;;;;449.48;403.25;;;;;;;-142.06;100.00;58987.19;7389305;19;20337;-52
2022/11/27 10:01:26;;;;;;;453.13;405.27;;;;;;;-142.06;100.00;58987.19;7386308;19;20033;-52
2022/11/27 10:04:01;;;;;;;425.30;379.45;;;;;;;-142.06;100.00;58987.19;7391583;19;20014;-53
2022/11/27 10:06:43;;;;;;;463.15;414.60;;;;;;;-142.06;100.00;58987.19;7385340;19;20355;-52
2022/11/27 10:09:29;;;;;;;452.85;405.90;;;;;;;-142.06;100.00;58987.19;7390269;19;20018;-50
2022/11/27 10:12:11;;;;;;;478.80;430.30;;;;;;;-142.06;100.00;58987.19;7386459;19;20088;-50
2022/11/27 10:14:55;;;;;;;459.88;412.83;;;;;;;-142.06;100.00;58987.19;7391040;19;20037;-52
2022/11/27 10:17:39;;;;;;;469.65;421.98;;;;;;;-142.06;100.00;58987.19;7386316;19;20010;-55
2022/11/27 10:20:27;;;;;;;464.50;417.15;;;;;;;-142.06;100.00;58987.19;7391084;19;20089;-51
2022/11/27 10:23:08;;;;;;;465.55;418.20;;;;;;;-142.06;100.00;58987.19;7389601;19;20016;-53
2022/11/27 10:25:48;;;;;;;449.73;403.77;;;;;;;-142.06;100.00;58987.19;7389558;19;20070;-52
2022/11/27 10:28:34;;;;;;;460.83;413.38;;;;;;;-142.06;100.00;58987.19;7390296;19;20015;-54
2022/11/27 10:31:16;;;;;;;468.08;420.85;;;;;;;-142.06;100.00;58987.19;7386387;19;20018;-56
2022/11/27 10:33:57;;;;;;;463.65;415.80;;;;;;;-142.06;100.00;58987.19;7387811;19;20010;-53
2022/11/27 10:36:35;;;;;;;472.92;424.30;;;;;;;-142.06;100.00;58987.19;7383951;19;20534;-55
2022/11/27 10:39:12;;;;;;;451.67;404.73;;;;;;;-142.06;100.00;58987.19;7387893;19;20466;-52
2022/11/27 10:41:51;;;;;;;473.13;425.90;;;;;;;-142.06;100.00;58987.19;7390408;19;20347;-49
2022/11/27 10:44:32;;;;;;;452.38;405.98;;;;;;;-142.06;100.00;58987.19;7382762;19;20017;-53
2022/11/27 10:47:08;;;;;;;455.98;409.40;;;;;;;-142.06;100.00;58987.19;7378642;19;20011;-53
2022/11/27 10:49:46;;;;;;;455.33;409.42;;;;;;;-142.06;100.00;58987.19;7383960;19;20018;-53
2022/11/27 10:52:22;;;;;;;459.48;412.50;;;;;;;-142.06;100.00;58987.19;7389157;19;20022;-53
2022/11/27 10:55:01;;;;;;;468.33;420.38;;;;;;;-142.06;100.00;58987.19;7383798;19;20010;-51
2022/11/27 10:57:46;;;;;;;;;;;;;;;-142.06;100.00;58987.19;7387644;19;20006;-51
2022/11/27 11:00:26;;;;;;;453.58;406.60;;;;;;;-142.06;100.00;58987.19;7388065;19;20267;-49
2022/11/27 11:03:11;;;;;;;438.42;393.45;;;;;;;-142.06;100.00;58987.19;7387749;19;20015;-55
2022/11/27 11:05:49;;;;;;;459.13;412.30;;;;;;;-142.06;100.00;58987.19;7386319;19;20350;-49
2022/11/27 11:08:24;;;;;;;435.00;389.20;;;;;;;-142.06;100.00;58987.19;7387396;19;20019;-55
2022/11/27 11:10:59;;;;;;;454.67;406.58;;;;;;;-142.06;100.00;58987.19;7385849;19;20026;-52
2022/11/27 11:13:33;;;;;;;445.10;398.17;;;;;;;-142.06;100.00;58987.19;7388144;19;20461;-54
2022/11/27 11:16:10;;;;;;;452.23;404.73;;;;;;;-142.06;100.00;58987.19;7383149;19;20354;-54